Time;durP1;ratioP1;P1;durP2;ratioP2;P2;SDS_P1;SDS_P2;PMS_P1;PMS_P2;Temp;Humidity;BMP_temperature;BMP_pressure;BME280_temperature;BME280_humidity;BME280_pressure;Samples;Min_cycle;Max_cycle;Signal;HPM_P1;HPM_P2
2021/07/15 00:00:43;;;;;;;4.75;0.90;;;;;;;23.71;47.73;100459.56;5042343;28;20060;-68
2021/07/15 00:03:29;;;;;;;1.42;0.50;;;;;;;23.71;47.71;100459.56;5044982;28;20049;-68
2021/07/15 00:06:14;;;;;;;3.05;0.73;;;;;;;23.76;47.52;100455.53;5044518;28;20417;-68
2021/07/15 00:08:59;;;;;;;1.98;0.60;;;;;;;23.77;47.32;100457.91;5043424;28;20060;-68
2021/07/15 00:28:09;;;;;;;1.10;0.60;;;;;;;23.78;46.77;100450.34;5039005;28;20397;-68
2021/07/15 00:30:54;;;;;;;2.30;0.88;;;;;;;23.79;46.88;100451.94;5047326;28;20048;-68
2021/07/15 00:33:39;;;;;;;3.28;0.90;;;;;;;23.77;47.12;100441.22;5045911;28;20048;-68
2021/07/15 00:36:24;;;;;;;1.98;0.60;;;;;;;23.79;47.09;100441.63;5040684;28;20041;-68
2021/07/15 00:39:09;;;;;;;1.55;0.63;;;;;;;23.70;46.82;100446.88;5046433;28;20068;-68
2021/07/15 00:41:54;;;;;;;3.25;1.23;;;;;;;23.42;47.10;100441.53;5055382;28;20420;-66
2021/07/15 00:44:39;;;;;;;1.95;0.82;;;;;;;23.26;47.54;100447.59;5055589;28;20087;-65
2021/07/15 00:47:25;;;;;;;1.38;0.70;;;;;;;23.39;48.45;100440.38;5059654;28;20064;-65
2021/07/15 00:50:10;;;;;;;1.75;0.80;;;;;;;23.50;48.28;100443.09;5059244;28;20416;-65
2021/07/15 00:52:55;;;;;;;4.18;0.80;;;;;;;23.60;47.94;100450.53;5059365;28;20171;-65
2021/07/15 00:55:43;;;;;;;1.73;0.60;;;;;;;23.43;47.03;100445.88;5052360;28;20060;-64
2021/07/15 00:58:29;;;;;;;3.42;1.10;;;;;;;23.17;47.15;100440.91;5059168;28;20056;-65
2021/07/15 01:01:15;;;;;;;6.28;0.70;;;;;;;23.30;48.71;100442.81;5059104;28;20044;-66
2021/07/15 01:04:00;;;;;;;3.42;0.85;;;;;;;23.18;47.40;100445.28;5057074;28;20507;-67
2021/07/15 01:06:45;;;;;;;1.55;0.60;;;;;;;23.24;48.32;100441.66;5058989;28;20507;-66
2021/07/15 01:09:31;;;;;;;1.98;0.55;;;;;;;23.37;48.47;100436.41;5059060;28;20048;-66
2021/07/15 01:12:34;;;;;;;2.53;0.60;;;;;;;23.54;48.28;100440.28;5058854;28;20048;-67
2021/07/15 01:15:24;;;;;;;2.20;0.77;;;;;;;23.61;48.47;100437.44;5053161;28;20052;-67
2021/07/15 01:18:42;;;;;;;1.48;0.60;;;;;;;23.67;48.20;100441.34;5058861;28;20047;-66
2021/07/15 01:21:43;;;;;;;5.18;0.80;;;;;;;23.70;48.40;100435.75;5055491;28;20052;-66
2021/07/15 01:24:43;;;;;;;1.70;0.80;;;;;;;23.72;48.25;100438.13;5055442;28;20052;-67
2021/07/15 01:27:27;;;;;;;1.30;0.75;;;;;;;23.71;48.63;100433.78;5058694;28;20052;-68
2021/07/15 01:30:25;;;;;;;1.65;0.57;;;;;;;23.73;48.23;100437.72;5058747;28;20056;-66
2021/07/15 01:33:18;;;;;;;2.10;0.70;;;;;;;23.74;48.20;100433.75;5058638;28;20048;-67
2021/07/15 01:36:08;;;;;;;2.30;0.77;;;;;;;23.71;48.07;100431.78;5058605;28;20040;-68
2021/07/15 01:38:58;;;;;;;7.53;0.63;;;;;;;23.70;48.19;100429.41;5058484;28;20055;-68
2021/07/15 01:41:46;;;;;;;3.53;0.73;;;;;;;23.71;48.17;100423.47;5058564;28;20052;-66
2021/07/15 01:44:32;;;;;;;1.52;0.60;;;;;;;23.75;48.11;100428.97;5055306;28;20060;-66
2021/07/15 01:47:17;;;;;;;1.95;1.25;;;;;;;23.71;48.27;100420.69;5057858;28;20071;-68
2021/07/15 01:50:04;;;;;;;4.10;0.80;;;;;;;23.69;48.40;100423.06;5058487;28;20048;-67
2021/07/15 01:52:51;;;;;;;3.50;0.80;;;;;;;23.67;48.42;100431.00;5058406;28;20512;-66
2021/07/15 01:55:38;;;;;;;1.05;0.52;;;;;;;23.62;48.54;100422.38;5051809;28;20043;-67
2021/07/15 01:58:25;;;;;;;1.88;0.77;;;;;;;23.68;48.71;100426.25;5058291;28;20428;-67
2021/07/15 02:01:11;;;;;;;2.63;0.77;;;;;;;23.66;48.67;100426.69;5057466;28;20056;-65
2021/07/15 02:04:00;;;;;;;1.55;0.90;;;;;;;23.67;48.82;100425.47;5056356;28;20529;-65
2021/07/15 02:06:51;;;;;;;4.78;0.80;;;;;;;23.64;48.63;100423.50;5058381;28;20409;-66
2021/07/15 02:09:37;;;;;;;2.05;0.65;;;;;;;23.67;48.65;100421.94;5058180;28;20404;-65
2021/07/15 02:12:24;;;;;;;1.17;0.70;;;;;;;23.71;48.35;100420.69;5058551;28;20064;-66
2021/07/15 02:15:09;;;;;;;7.93;0.90;;;;;;;23.71;48.50;100415.13;5052868;28;20044;-66
2021/07/15 02:17:56;;;;;;;2.00;0.65;;;;;;;23.71;48.46;100415.13;5058368;28;20056;-66
2021/07/15 02:20:43;;;;;;;3.40;0.90;;;;;;;23.69;48.62;100417.53;5056728;28;20048;-66
2021/07/15 02:23:29;;;;;;;2.13;1.42;;;;;;;23.68;48.59;100413.16;5057557;28;20067;-66
2021/07/15 02:26:14;;;;;;;5.53;0.88;;;;;;;23.67;48.70;100416.38;5058155;28;20044;-65
2021/07/15 02:28:59;;;;;;;2.00;0.82;;;;;;;23.70;48.81;100421.88;5058353;28;20051;-67
2021/07/15 02:31:48;;;;;;;0.57;0.50;;;;;;;23.69;48.73;100427.84;5058113;28;20401;-66
2021/07/15 02:34:39;;;;;;;4.25;1.00;;;;;;;23.64;48.94;100417.19;5054320;28;20044;-68
2021/07/15 02:37:27;;;;;;;2.17;0.95;;;;;;;23.65;49.50;100427.88;5058058;28;20048;-66
2021/07/15 02:40:15;;;;;;;5.38;1.13;;;;;;;23.65;49.40;100422.31;5057929;28;20048;-68
2021/07/15 02:43:00;;;;;;;3.97;0.77;;;;;;;23.65;49.46;100425.09;5058032;28;20052;-66
2021/07/15 02:45:45;;;;;;;1.52;0.82;;;;;;;23.66;49.20;100417.56;5057863;28;20048;-65
2021/07/15 02:48:37;;;;;;;3.78;0.60;;;;;;;23.67;49.52;100414.34;5053450;28;20049;-67
2021/07/15 02:51:22;;;;;;;1.23;0.70;;;;;;;23.66;49.66;100425.88;5034981;28;20051;-67
2021/07/15 02:54:07;;;;;;;3.13;0.55;;;;;;;23.67;49.36;100427.47;5039633;28;20508;-68
2021/07/15 02:57:10;;;;;;;1.33;0.63;;;;;;;23.67;49.78;100425.47;5044411;28;20048;-68
2021/07/15 03:00:09;;;;;;;1.40;0.80;;;;;;;23.67;49.83;100433.78;5045147;28;20532;-68
2021/07/15 03:03:09;;;;;;;2.72;0.63;;;;;;;23.65;49.89;100427.88;5040798;28;20048;-66
2021/07/15 03:06:08;;;;;;;1.77;0.70;;;;;;;23.65;49.77;100438.97;5046631;28;20045;-66
2021/07/15 03:09:00;;;;;;;1.67;0.73;;;;;;;23.65;49.92;100438.19;5044172;28;20048;-65
2021/07/15 03:11:50;;;;;;;2.53;0.90;;;;;;;23.64;49.59;100437.41;5045351;28;20393;-66
2021/07/15 03:14:38;;;;;;;0.85;0.60;;;;;;;23.63;50.17;100441.38;5040217;28;20056;-66
2021/07/15 03:17:33;;;;;;;2.58;0.93;;;;;;;23.61;50.33;100438.22;5044988;28;20056;-66
2021/07/15 03:20:25;;;;;;;1.10;0.80;;;;;;;23.58;50.17;100444.59;5050953;28;20048;-66
2021/07/15 03:23:15;;;;;;;1.83;0.88;;;;;;;23.59;50.14;100439.81;5035289;28;20400;-66
2021/07/15 03:26:02;;;;;;;2.22;0.65;;;;;;;23.56;50.34;100438.69;5046844;28;20409;-67
2021/07/15 03:28:48;;;;;;;2.78;0.90;;;;;;;23.51;50.05;100436.34;5044671;28;20053;-66
2021/07/15 03:31:34;;;;;;;2.70;0.70;;;;;;;23.55;49.79;100433.53;5044308;28;20060;-67
2021/07/15 03:34:20;;;;;;;2.97;0.80;;;;;;;23.53;49.73;100435.91;5042441;28;20524;-67
2021/07/15 03:37:05;;;;;;;2.30;0.90;;;;;;;23.56;49.95;100430.34;5042810;28;20040;-67
2021/07/15 03:39:52;;;;;;;1.60;0.88;;;;;;;23.53;49.84;100431.16;5043517;28;20044;-68
2021/07/15 03:42:38;;;;;;;5.68;1.05;;;;;;;23.52;50.32;100429.56;5048872;28;20060;-68
2021/07/15 03:45:25;;;;;;;4.25;0.90;;;;;;;23.52;49.97;100428.81;5043758;28;20036;-68
2021/07/15 03:48:11;;;;;;;2.45;1.17;;;;;;;23.50;50.25;100431.19;5060776;28;20048;-68
2021/07/15 03:50:59;;;;;;;2.72;1.10;;;;;;;23.50;50.54;100431.97;5052481;28;20044;-67
2021/07/15 03:53:45;;;;;;;2.50;0.85;;;;;;;23.49;50.43;100424.06;5041561;28;20064;-66
2021/07/15 03:56:31;;;;;;;4.55;1.05;;;;;;;23.51;50.60;100438.31;5045711;28;20064;-66
2021/07/15 03:59:18;;;;;;;5.63;0.90;;;;;;;23.50;50.40;100447.84;5048079;28;20053;-67
2021/07/15 04:02:07;;;;;;;4.45;0.90;;;;;;;23.47;50.19;100455.00;5040207;28;20413;-66
2021/07/15 04:04:57;;;;;;;2.72;1.17;;;;;;;23.42;50.40;100461.75;5035615;28;20052;-67
2021/07/15 04:07:43;;;;;;;2.40;1.33;;;;;;;23.39;50.05;100453.44;5043498;28;20515;-67
2021/07/15 04:10:30;;;;;;;1.30;1.10;;;;;;;23.38;50.13;100460.19;5035942;28;20048;-68
2021/07/15 04:13:17;;;;;;;4.70;1.00;;;;;;;23.39;50.16;100464.56;5043981;28;20045;-68
2021/07/15 04:16:04;;;;;;;1.83;1.08;;;;;;;23.37;50.29;100462.19;5049264;28;20044;-66
2021/07/15 04:18:53;;;;;;;3.67;1.05;;;;;;;23.40;49.91;100460.59;5043136;28;20056;-68
2021/07/15 04:21:39;;;;;;;4.38;1.27;;;;;;;23.47;49.81;100459.78;5043993;28;20051;-68
2021/07/15 04:24:25;;;;;;;4.20;1.80;;;;;;;23.42;49.99;100458.16;5023850;28;20056;-68
2021/07/15 04:27:11;;;;;;;7.43;1.40;;;;;;;23.42;50.12;100453.41;5028517;28;20057;-67
2021/07/15 04:30:03;;;;;;;25.80;2.13;;;;;;;23.43;50.26;100451.44;5049082;28;20052;-68
2021/07/15 04:33:02;;;;;;;14.48;2.00;;;;;;;23.41;50.20;100445.50;5019843;28;20056;-68
2021/07/15 04:35:47;;;;;;;9.20;1.80;;;;;;;23.40;50.31;100443.94;5035081;28;20032;-67
2021/07/15 04:38:33;;;;;;;12.00;2.22;;;;;;;23.37;50.39;100455.84;5033994;28;20064;-67
2021/07/15 04:41:19;;;;;;;14.68;1.90;;;;;;;23.38;50.72;100463.75;5047511;28;20044;-68
2021/07/15 04:44:06;;;;;;;12.68;2.15;;;;;;;23.37;50.90;100453.06;5042905;28;20420;-66
2021/07/15 04:46:51;;;;;;;9.68;2.42;;;;;;;23.34;51.11;100462.22;5047818;28;20044;-68
2021/07/15 04:49:36;;;;;;;12.43;2.25;;;;;;;23.30;50.79;100464.22;5047300;28;20053;-68
2021/07/15 04:52:23;;;;;;;10.05;2.78;;;;;;;23.24;50.78;100465.84;5039356;28;20052;-67
2021/07/15 04:55:09;;;;;;;6.07;1.55;;;;;;;23.22;50.79;100462.69;5043585;28;20044;-66
2021/07/15 04:57:54;;;;;;;20.10;2.00;;;;;;;23.21;50.81;100452.81;5059175;28;20060;-66
2021/07/15 05:00:40;;;;;;;4.68;1.50;;;;;;;23.16;51.20;100467.88;5058162;28;20523;-66
2021/07/15 05:03:32;;;;;;;8.70;1.40;;;;;;;23.09;50.96;100467.16;5043379;28;20048;-68
2021/07/15 05:06:19;;;;;;;3.40;1.50;;;;;;;23.03;51.20;100467.56;5036707;28;20406;-66
2021/07/15 05:09:04;;;;;;;7.45;1.40;;;;;;;23.00;51.09;100468.41;5047015;28;20048;-66
2021/07/15 05:11:49;;;;;;;3.55;1.13;;;;;;;22.95;51.30;100466.03;5044545;28;20099;-68
2021/07/15 05:14:40;;;;;;;5.53;1.75;;;;;;;22.92;51.56;100458.53;5030782;28;20053;-67
2021/07/15 05:17:25;;;;;;;2.30;1.20;;;;;;;22.91;51.45;100467.22;5040121;28;20040;-67
2021/07/15 05:20:11;;;;;;;5.82;1.25;;;;;;;22.89;51.34;100462.13;5030231;28;20048;-66
2021/07/15 05:22:56;;;;;;;9.30;1.45;;;;;;;22.88;51.13;100463.31;5041073;28;20044;-68
2021/07/15 05:25:41;;;;;;;8.70;1.65;;;;;;;22.86;50.95;100462.91;5035626;28;20035;-67
2021/07/15 05:28:27;;;;;;;6.10;1.45;;;;;;;22.85;51.28;100472.44;5035346;28;20048;-67
2021/07/15 05:31:13;;;;;;;4.00;1.30;;;;;;;22.83;50.89;100476.78;5042399;28;20053;-67
2021/07/15 05:33:57;;;;;;;7.28;1.98;;;;;;;22.79;51.31;100479.59;5039268;28;20053;-67
2021/07/15 05:36:43;;;;;;;5.25;1.38;;;;;;;22.77;51.11;100479.19;5049144;28;20720;-67
2021/07/15 05:39:29;;;;;;;6.03;1.55;;;;;;;22.82;51.10;100480.75;5036938;28;20143;-67
2021/07/15 05:42:13;;;;;;;13.02;1.77;;;;;;;22.86;51.53;100482.31;5042316;28;20052;-68
2021/07/15 05:44:59;;;;;;;12.15;2.38;;;;;;;22.89;51.31;100487.06;5046921;28;20047;-69
2021/07/15 05:47:44;;;;;;;9.77;2.35;;;;;;;22.94;51.30;100494.97;5025498;28;20056;-68
2021/07/15 05:50:29;;;;;;;11.27;2.50;;;;;;;22.98;51.60;100495.72;5041457;28;20429;-66
2021/07/15 05:53:14;;;;;;;5.85;1.48;;;;;;;23.00;51.23;100496.13;5039881;28;20044;-67
2021/07/15 05:55:59;;;;;;;14.32;2.35;;;;;;;23.06;50.81;100502.00;5040760;28;20052;-65
2021/07/15 05:58:45;;;;;;;14.75;2.38;;;;;;;23.07;50.46;100498.06;5038420;28;20049;-66
2021/07/15 06:01:29;;;;;;;13.32;1.73;;;;;;;22.85;50.84;100502.94;5031901;28;20064;-66
2021/07/15 06:04:14;;;;;;;7.07;1.30;;;;;;;22.81;51.41;100493.84;5034386;28;20048;-65
2021/07/15 06:06:59;;;;;;;8.07;1.67;;;;;;;22.96;50.92;100497.31;5038605;28;20060;-65
2021/07/15 06:09:44;;;;;;;7.85;2.05;;;;;;;23.13;50.83;100501.19;5038363;28;20512;-66
2021/07/15 06:12:29;;;;;;;9.70;1.55;;;;;;;23.02;50.02;100487.38;5051142;28;20056;-66
2021/07/15 06:15:14;;;;;;;5.38;1.10;;;;;;;22.91;49.82;100487.44;5044819;28;20044;-66
2021/07/15 06:17:59;;;;;;;5.90;1.20;;;;;;;22.96;51.06;100484.25;5037226;28;20056;-67
2021/07/15 06:20:44;;;;;;;9.75;1.40;;;;;;;23.12;50.85;100491.28;5043025;28;20063;-67
2021/07/15 06:23:31;;;;;;;8.50;1.33;;;;;;;23.19;50.23;100482.94;5040731;28;20505;-67
2021/07/15 06:26:16;;;;;;;9.38;1.40;;;;;;;23.27;50.22;100484.44;5043258;28;20041;-67
2021/07/15 06:29:02;;;;;;;11.88;1.58;;;;;;;23.34;49.56;100490.75;5051000;28;20068;-66
2021/07/15 06:31:46;;;;;;;10.02;1.63;;;;;;;23.28;49.07;100499.91;5042304;28;20052;-67
2021/07/15 06:34:32;;;;;;;13.57;1.88;;;;;;;23.19;49.13;100491.25;5041525;28;20052;-66
2021/07/15 06:37:17;;;;;;;6.43;1.10;;;;;;;23.11;48.66;100498.81;5040882;28;20052;-66
2021/07/15 06:40:05;;;;;;;10.45;1.67;;;;;;;22.99;49.63;100497.31;5051534;28;20068;-66
2021/07/15 06:42:50;;;;;;;7.82;1.27;;;;;;;23.19;49.53;100507.91;5043824;28;20044;-66
2021/07/15 06:45:35;;;;;;;3.97;1.40;;;;;;;23.37;49.74;100506.56;5040600;28;20048;-66
2021/07/15 06:48:20;;;;;;;5.13;1.10;;;;;;;23.50;49.21;100512.47;5036329;28;20040;-67
2021/07/15 06:51:05;;;;;;;9.70;1.75;;;;;;;23.55;49.42;100506.50;5021755;28;20057;-64
2021/07/15 06:53:51;;;;;;;13.27;1.85;;;;;;;23.53;48.62;100496.97;5020225;28;20053;-66
2021/07/15 06:56:35;;;;;;;11.48;1.85;;;;;;;23.47;48.92;100504.19;5021596;28;20064;-65
2021/07/15 06:59:20;;;;;;;12.57;1.70;;;;;;;23.42;49.04;100492.28;5021727;28;20445;-67
2021/07/15 07:02:07;;;;;;;7.50;1.35;;;;;;;23.54;49.14;100499.34;5021822;28;20049;-67
2021/07/15 07:04:53;;;;;;;5.00;1.40;;;;;;;23.56;49.20;100508.06;5017151;28;20057;-66
2021/07/15 07:07:38;;;;;;;4.85;1.60;;;;;;;23.55;48.96;100500.16;5021737;28;20045;-67
2021/07/15 07:10:23;;;;;;;8.43;1.60;;;;;;;23.60;49.18;100513.59;5021536;28;20394;-67
2021/07/15 07:13:08;;;;;;;6.18;1.50;;;;;;;23.62;48.59;100506.41;5021403;28;20406;-66
2021/07/15 07:15:53;;;;;;;11.23;2.15;;;;;;;23.63;49.04;100512.78;5021335;28;20053;-67
2021/07/15 07:18:38;;;;;;;11.80;1.63;;;;;;;23.64;48.99;100514.34;5021266;28;20069;-67
2021/07/15 07:21:23;;;;;;;23.10;4.68;;;;;;;23.65;48.73;100522.28;5018067;28;20049;-67
2021/07/15 07:24:08;;;;;;;24.17;4.20;;;;;;;23.67;49.27;100525.41;5018799;28;20516;-66
2021/07/15 07:26:53;;;;;;;20.30;2.95;;;;;;;23.68;48.82;100524.22;5021193;28;20065;-66
2021/07/15 07:29:38;;;;;;;8.35;1.73;;;;;;;23.67;47.51;100517.09;5021051;28;20061;-66
2021/07/15 07:32:23;;;;;;;14.40;2.13;;;;;;;23.63;46.86;100516.34;5021105;28;20048;-67
2021/07/15 07:35:08;;;;;;;21.65;3.55;;;;;;;23.64;47.21;100511.56;5028827;28;20057;-68
2021/07/15 07:37:53;;;;;;;8.48;1.90;;;;;;;23.60;47.75;100506.06;5021251;28;20049;-66
2021/07/15 07:40:38;;;;;;;9.88;2.20;;;;;;;23.51;48.04;100510.50;5020916;28;20057;-67
2021/07/15 07:43:23;;;;;;;7.50;2.22;;;;;;;23.46;48.61;100513.72;5020594;28;20564;-67
2021/07/15 07:46:08;;;;;;;7.43;2.95;;;;;;;23.37;50.00;100519.66;5020228;28;20049;-67
2021/07/15 07:48:52;;;;;;;6.55;2.00;;;;;;;23.32;49.36;100522.88;5020770;28;20041;-68
2021/07/15 07:51:38;;;;;;;9.20;2.58;;;;;;;23.51;49.41;100519.63;5020804;28;20064;-69
2021/07/15 07:54:23;;;;;;;9.88;2.35;;;;;;;23.55;49.83;100520.38;5017607;28;20513;-68
2021/07/15 07:57:09;;;;;;;4.70;1.95;;;;;;;23.49;48.17;100516.44;5020548;28;20497;-68
2021/07/15 07:59:56;;;;;;;6.10;1.70;;;;;;;23.52;47.79;100518.41;5020517;28;20049;-68
2021/07/15 08:02:45;;;;;;;5.70;1.75;;;;;;;23.48;46.84;100511.28;5020467;28;20049;-66
2021/07/15 08:05:32;;;;;;;10.23;1.80;;;;;;;23.44;46.54;100517.66;5014275;28;20044;-67
2021/07/15 08:08:19;;;;;;;5.32;1.70;;;;;;;23.38;47.26;100522.03;5020431;28;20402;-66
2021/07/15 08:11:04;;;;;;;11.25;1.95;;;;;;;23.43;45.90;100518.03;5020525;28;20045;-67
2021/07/15 08:13:49;;;;;;;10.18;2.03;;;;;;;23.42;44.95;100522.00;5018837;28;20410;-68
2021/07/15 08:16:34;;;;;;;9.43;2.50;;;;;;;23.38;46.06;100515.69;5020003;28;20044;-67
2021/07/15 08:19:20;;;;;;;6.60;2.10;;;;;;;23.38;45.42;100518.47;5020128;28;20048;-67
2021/07/15 08:22:06;;;;;;;3.92;1.80;;;;;;;23.42;45.90;100535.88;5014818;28;20048;-66
2021/07/15 08:24:50;;;;;;;8.45;1.83;;;;;;;23.44;45.59;100539.06;5015738;28;20430;-68
2021/07/15 08:27:36;;;;;;;7.93;1.60;;;;;;;23.50;44.92;100536.66;5019966;28;20045;-67
2021/07/15 08:30:22;;;;;;;5.93;1.27;;;;;;;23.52;44.89;100539.84;5013241;28;20060;-70
2021/07/15 08:33:06;;;;;;;7.32;1.60;;;;;;;23.54;45.08;100538.22;5040535;28;20044;-70
2021/07/15 08:35:52;;;;;;;6.57;1.65;;;;;;;23.62;44.85;100531.41;5041733;28;20044;-68
2021/07/15 08:38:38;;;;;;;7.45;1.63;;;;;;;23.68;44.78;100524.22;5042079;28;20045;-70
2021/07/15 08:41:24;;;;;;;6.85;1.75;;;;;;;23.78;44.86;100531.69;5047053;28;20052;-67
2021/07/15 08:44:09;;;;;;;8.43;1.95;;;;;;;23.79;44.59;100527.72;5044743;28;20052;-70
2021/07/15 08:46:57;;;;;;;8.85;1.92;;;;;;;23.88;44.66;100524.47;5046999;28;20532;-71
2021/07/15 08:49:43;;;;;;;6.35;1.70;;;;;;;23.95;42.93;100529.16;5037586;28;20048;-70
2021/07/15 08:52:29;;;;;;;7.93;1.80;;;;;;;24.02;43.25;100529.91;5049794;28;20068;-70
2021/07/15 08:59:55;;;;;;;18.52;2.90;;;;;;;24.12;44.06;100531.00;5068815;27;20375;-72
2021/07/15 09:02:40;;;;;;;17.00;3.00;;;;;;;24.37;44.41;100534.34;5074262;28;20052;-71
2021/07/15 09:05:25;;;;;;;23.85;3.28;;;;;;;24.69;43.90;100531.97;5052077;28;20120;-70
2021/07/15 09:08:12;;;;;;;12.32;2.33;;;;;;;24.95;43.05;100540.84;5044237;28;20057;-69
2021/07/15 09:10:59;;;;;;;9.90;2.60;;;;;;;24.63;42.92;100541.22;5035890;28;20049;-71
2021/07/15 09:13:43;;;;;;;9.65;2.50;;;;;;;24.63;43.07;100541.22;5034482;28;20107;-71
2021/07/15 09:16:30;;;;;;;7.50;2.42;;;;;;;24.74;42.54;100541.09;5035767;28;20048;-70
2021/07/15 09:19:18;;;;;;;10.10;2.25;;;;;;;24.82;42.13;100539.78;5029009;28;20103;-70
2021/07/15 09:22:12;;;;;;;4.97;1.75;;;;;;;24.95;42.24;100540.84;5039601;28;20049;-69
2021/07/15 09:25:00;;;;;;;3.10;1.55;;;;;;;24.68;41.16;100533.22;5030961;28;20060;-69
2021/07/15 09:27:49;;;;;;;4.00;1.75;;;;;;;24.82;41.08;100537.00;5035682;28;20052;-70
2021/07/15 09:30:36;;;;;;;8.77;1.95;;;;;;;24.70;42.74;100541.91;5035452;28;20045;-68
2021/07/15 09:33:24;;;;;;;5.95;2.05;;;;;;;24.78;42.18;100541.84;5034982;28;20520;-69
2021/07/15 09:36:16;;;;;;;8.40;1.77;;;;;;;24.86;41.39;100540.53;5035523;28;20048;-69
2021/07/15 09:39:02;;;;;;;9.30;2.08;;;;;;;24.64;41.33;100551.91;5035099;28;20045;-68
2021/07/15 09:42:06;;;;;;;6.38;1.88;;;;;;;24.71;42.76;100549.06;5035687;28;20053;-69
2021/07/15 09:44:53;;;;;;;8.27;2.22;;;;;;;24.83;41.13;100549.72;5050711;28;20040;-71
2021/07/15 09:47:47;;;;;;;5.85;2.47;;;;;;;24.68;43.16;100555.44;5055138;28;20409;-69
2021/07/15 09:50:31;;;;;;;7.60;1.70;;;;;;;24.90;42.80;100546.84;5055094;28;20048;-70
2021/07/15 09:53:23;;;;;;;6.78;1.88;;;;;;;24.89;42.70;100548.84;5055075;28;20052;-68
2021/07/15 09:56:12;;;;;;;6.18;1.65;;;;;;;24.90;43.11;100549.63;5054828;28;20044;-67
2021/07/15 09:58:57;;;;;;;6.20;2.03;;;;;;;24.97;42.69;100558.69;5050309;28;20047;-69
2021/07/15 10:01:47;;;;;;;3.40;1.75;;;;;;;25.02;41.55;100546.31;5046537;28;20048;-68
2021/07/15 10:04:32;;;;;;;6.00;2.38;;;;;;;25.07;41.27;100537.50;5049798;28;20051;-67
2021/07/15 10:07:23;;;;;;;7.63;1.50;;;;;;;25.03;41.90;100536.75;5046785;28;20401;-70
2021/07/15 10:10:20;;;;;;;7.53;2.30;;;;;;;25.13;40.45;100544.19;5045080;28;20068;-69
2021/07/15 10:13:20;;;;;;;4.60;1.38;;;;;;;25.12;41.35;100539.81;5035196;28;20402;-68
2021/07/15 10:16:06;;;;;;;4.50;1.58;;;;;;;25.14;42.36;100538.19;5024092;28;20048;-67
2021/07/15 10:18:52;;;;;;;8.68;2.33;;;;;;;25.29;40.50;100544.34;5038209;28;20048;-69
2021/07/15 10:21:37;;;;;;;35.13;7.55;;;;;;;25.32;40.44;100543.50;5034413;28;20410;-68
2021/07/15 10:24:25;;;;;;;47.95;8.25;;;;;;;25.14;42.41;100538.19;5031268;28;20048;-68
2021/07/15 10:27:10;;;;;;;13.98;2.55;;;;;;;25.10;41.18;100531.09;5037052;28;20068;-69
2021/07/15 10:29:58;;;;;;;9.88;2.50;;;;;;;25.23;40.85;100529.31;5034038;28;20508;-69
2021/07/15 10:32:44;;;;;;;18.83;3.20;;;;;;;25.06;43.02;100531.16;5033215;28;20049;-69
2021/07/15 10:35:29;;;;;;;15.48;3.17;;;;;;;24.97;43.76;100524.53;5033193;28;20417;-69
2021/07/15 10:38:14;;;;;;;12.57;2.58;;;;;;;25.03;43.68;100520.06;5032587;28;20036;-67
2021/07/15 10:40:59;;;;;;;10.23;2.17;;;;;;;25.28;41.18;100520.50;5032402;28;20350;-68
2021/07/15 10:43:44;;;;;;;6.15;1.75;;;;;;;25.49;40.59;100516.63;5031988;28;20417;-70
2021/07/15 10:46:30;;;;;;;4.07;2.25;;;;;;;25.62;40.05;100514.03;5035646;28;20044;-69
2021/07/15 10:49:15;;;;;;;4.95;1.70;;;;;;;25.50;41.96;100518.16;5032010;28;20040;-68
2021/07/15 10:52:01;;;;;;;8.15;2.42;;;;;;;25.24;43.22;100508.66;5036674;28;20409;-69
2021/07/15 10:54:46;;;;;;;5.32;2.10;;;;;;;25.42;41.51;100508.34;5034233;28;20064;-69
2021/07/15 10:57:33;;;;;;;13.68;2.30;;;;;;;25.49;42.42;100509.06;5031362;28;20048;-69
2021/07/15 11:00:28;;;;;;;7.55;1.63;;;;;;;25.40;42.54;100503.19;5036299;28;20048;-69
2021/07/15 11:03:23;;;;;;;12.30;2.28;;;;;;;25.46;42.64;100509.88;5034337;28;20413;-68
2021/07/15 11:06:07;;;;;;;13.35;3.15;;;;;;;25.57;41.14;100506.97;5032477;28;20056;-68
2021/07/15 11:08:55;;;;;;;5.63;1.92;;;;;;;25.67;40.39;100510.78;5033913;28;20037;-69
2021/07/15 11:11:44;;;;;;;11.90;1.83;;;;;;;25.74;41.29;100507.88;5037957;28;20056;-65
2021/07/15 11:14:38;;;;;;;13.98;1.73;;;;;;;25.63;41.73;100510.84;5027324;28;20120;-66
2021/07/15 11:17:30;;;;;;;9.80;2.13;;;;;;;25.54;40.71;100513.34;5031554;28;20409;-65
2021/07/15 11:20:26;;;;;;;6.97;2.05;;;;;;;25.59;41.93;100528.81;5025009;28;20524;-65
2021/07/15 11:23:20;;;;;;;7.70;1.60;;;;;;;25.44;42.48;100523.44;5021500;28;20065;-66
2021/07/15 11:26:38;;;;;;;8.88;1.67;;;;;;;25.12;43.62;100521.13;5025622;28;20520;-66
2021/07/15 11:29:49;;;;;;;5.05;1.95;;;;;;;24.99;44.99;100519.34;5036071;28;20040;-65
2021/07/15 11:32:34;;;;;;;11.75;2.92;;;;;;;25.16;42.84;100528.63;5036305;28;20040;-66
2021/07/15 11:35:31;;;;;;;3.78;1.60;;;;;;;25.32;43.44;100535.16;5028040;28;20048;-66
2021/07/15 11:38:23;;;;;;;8.48;2.03;;;;;;;25.32;43.16;100528.78;5029107;28;20421;-67
2021/07/15 11:41:13;;;;;;;4.95;1.48;;;;;;;25.37;43.00;100519.97;5026794;28;20111;-66
2021/07/15 11:43:58;;;;;;;5.07;2.15;;;;;;;25.55;42.54;100523.28;5024338;28;20048;-66
2021/07/15 11:46:46;;;;;;;2.85;1.42;;;;;;;25.53;42.28;100526.50;5035125;28;20405;-67
2021/07/15 11:49:41;;;;;;;9.57;1.85;;;;;;;25.57;42.62;100526.44;5035760;28;20044;-66
2021/07/15 11:52:26;;;;;;;;;;;;;;;25.52;42.88;100521.34;5033288;28;20052;-65
2021/07/15 11:55:12;;;;;;;5.07;1.48;;;;;;;25.43;43.49;100529.44;5022607;28;19913;-66
2021/07/15 11:57:57;;;;;;;7.15;1.55;;;;;;;25.28;44.41;100522.50;5032165;28;20092;-64
2021/07/15 12:00:42;;;;;;;7.78;1.65;;;;;;;25.38;44.26;100516.78;5032604;28;20405;-66
2021/07/15 12:03:27;;;;;;;7.25;2.42;;;;;;;25.67;42.42;100522.72;5037009;28;20409;-66
2021/07/15 12:06:13;;;;;;;7.15;1.95;;;;;;;25.86;40.90;100526.75;5032811;28;20432;-66
2021/07/15 12:09:09;;;;;;;5.40;1.88;;;;;;;25.76;42.75;100527.72;5032606;28;20052;-65
2021/07/15 12:11:57;;;;;;;5.20;2.05;;;;;;;25.75;42.59;100510.22;5035335;28;20044;-67
2021/07/15 12:14:51;;;;;;;5.70;2.30;;;;;;;25.80;41.68;100511.78;5030575;28;20041;-67
2021/07/15 12:17:36;;;;;;;4.30;1.50;;;;;;;25.72;42.00;100515.88;5029889;28;20044;-66
2021/07/15 12:20:23;;;;;;;3.70;1.38;;;;;;;25.56;42.67;100519.31;5035166;28;20044;-67
2021/07/15 12:23:34;;;;;;;3.08;1.17;;;;;;;25.22;43.84;100508.25;5033997;28;20519;-66
2021/07/15 12:26:20;;;;;;;3.60;1.23;;;;;;;25.21;44.34;100517.81;5035246;28;20167;-64
2021/07/15 12:29:08;;;;;;;4.95;1.85;;;;;;;25.34;43.44;100507.69;5034155;28;20504;-66
2021/07/15 12:31:54;;;;;;;8.88;1.63;;;;;;;25.46;43.67;100507.09;5031340;28;20048;-66
2021/07/15 12:34:39;;;;;;;4.20;1.83;;;;;;;25.58;43.33;100507.75;5032453;28;20064;-67
2021/07/15 12:37:29;;;;;;;4.35;1.02;;;;;;;25.53;43.13;100506.19;5034042;28;20044;-65
2021/07/15 12:40:14;;;;;;;5.57;1.25;;;;;;;25.31;43.98;100507.72;5030406;28;20508;-66
2021/07/15 12:43:23;;;;;;;5.57;1.90;;;;;;;25.31;44.01;100508.53;5032676;28;20061;-65
2021/07/15 12:46:10;;;;;;;8.60;1.75;;;;;;;25.34;43.94;100504.91;5036106;28;20041;-65
2021/07/15 12:49:22;;;;;;;3.28;1.20;;;;;;;25.46;43.86;100511.88;5032939;28;20037;-66
2021/07/15 12:52:07;;;;;;;6.50;1.90;;;;;;;25.45;43.19;100510.28;5023587;28;20041;-65
2021/07/15 12:54:53;;;;;;;6.05;1.50;;;;;;;25.58;42.83;100507.75;5030342;28;20056;-66
2021/07/15 12:57:38;;;;;;;3.83;1.73;;;;;;;25.64;42.70;100497.72;5034598;28;20040;-65
2021/07/15 13:00:24;;;;;;;5.45;1.42;;;;;;;25.58;42.92;100505.75;5033003;28;20064;-65
2021/07/15 13:03:09;;;;;;;6.55;1.40;;;;;;;25.59;42.71;100501.75;5032595;28;20532;-64
2021/07/15 13:05:53;;;;;;;7.03;2.25;;;;;;;25.72;40.74;100511.09;5037012;28;20053;-64
2021/07/15 13:08:53;;;;;;;6.82;1.92;;;;;;;25.88;41.22;100507.63;5027854;28;20040;-64
2021/07/15 13:14:47;;;;;;;5.15;1.45;;;;;;;25.93;41.67;100504.38;5027561;28;20041;-65
2021/07/15 13:17:45;;;;;;;6.80;2.15;;;;;;;25.87;42.09;100495.69;5032072;28;20041;-65
2021/07/15 13:20:30;;;;;;;3.45;1.63;;;;;;;25.61;42.78;100485.41;5033454;28;20500;-65
2021/07/15 13:23:16;;;;;;;3.58;0.90;;;;;;;25.41;43.36;100496.44;5032689;28;20056;-65